Flight Sim Network - KOXB Airport Info

    KOXB (Ocean City Municipal Airport)  Login to use Map Selector
   

  RUNWAY INFORMATION    |    Airport Elevation : 11ft    |    LAT : 38.3103981018066  /  LON : -75.1240005493164
Runway Number 02 / 20 Runway Width 75' Runway Length 3201'
Lighted Runway Yes Runway StatusOpen Runway Surface Concrete
Runway Number 14 / 32 Runway Width 75' Runway Length 4072'
Lighted Runway Yes Runway StatusOpen Runway Surface Concrete
  CLOSE ALTERNATE AIRPORTS
ICAODistanceAirport NameLongest RWRW SurfaceMAP
4MD16NMBunting's Field3000FTDirt
DE2113NMWest Private Airport3000FTDirt
KSBY18NMSalisbury Ocean City Wicomico Regional Airport5500FTAsphalt
DE4922NMJosephs Airport4564FTAsphalt
DE1323NMRehoboth Bay Seaplane Base5000FTWater
1N524NMBennett Airport3150FTDirt
KGED25NMSussex County Airport5001FTAsphalt
MD3526NMSpring Hill Airport3400FTDirt
N0626NMLaurel3175FTDirt
KWAL27NMWallops Flight Facility Airport8753FTAsphalt
  AIRPORT WEATHER
75°F | 24°C
Temperature
62%
Humidity
30" | 1016mb
Pressure
10sm
Visibility
VFR
Flight Rules
CLR
Initial Clouds
FAIR
Conditions
Wind Info
6/15/24 20:53Z
Updated

KOXB 152053Z AUTO 09006KT 10SM CLR 24/17 A3003 RMK AO2 SLP169 T02440167 53003
  AIRPORT CHARTS
  AIRPORT FREQUENCIES
NameFrequency
CLEARANCE119.020
UNICOM122.800
MULTICOM122.800
APPROACH127.950
DEPARTURE127.950
IOXB (RWY 14)109.150

Powered by Virtual Airlines Manager